Time;durP1;ratioP1;P1;durP2;ratioP2;P2;SDS_P1;SDS_P2;PMS_P1;PMS_P2;Temp;Humidity;BMP_temperature;BMP_pressure;BME280_temperature;BME280_humidity;BME280_pressure;Samples;Min_cycle;Max_cycle;Signal;HPM_P1;HPM_P2
2021/05/03 00:00:04;;;;;;;6.75;5.40;;;;;;;;;;5052725;28;20120;-62
2021/05/03 00:02:51;;;;;;;8.77;5.55;;;;;;;;;;5052980;28;20411;-62
2021/05/03 00:05:36;;;;;;;7.03;5.90;;;;;;;;;;5052004;28;20049;-62
2021/05/03 00:08:22;;;;;;;6.38;4.75;;;;;;;;;;5052938;28;20072;-61
2021/05/03 00:11:07;;;;;;;7.72;5.43;;;;;;;;;;5051582;28;20045;-61
2021/05/03 00:13:52;;;;;;;7.43;4.88;;;;;;;;;;5050731;28;20056;-62
2021/05/03 00:16:38;;;;;;;7.13;5.00;;;;;;;;;;5052639;28;20049;-62
2021/05/03 00:19:23;;;;;;;7.57;5.20;;;;;;;;;;5052489;28;20099;-62
2021/05/03 00:22:09;;;;;;;8.63;4.68;;;;;;;;;;5052528;28;20483;-62
2021/05/03 00:24:54;;;;;;;5.78;4.63;;;;;;;;;;5051426;28;20056;-62
2021/05/03 00:27:39;;;;;;;6.95;4.78;;;;;;;;;;5052524;28;20045;-61
2021/05/03 00:30:25;;;;;;;6.95;5.50;;;;;;;;;;5052012;28;20053;-62
2021/05/03 00:33:10;;;;;;;8.65;5.30;;;;;;;;;;5051748;28;20045;-61
2021/05/03 00:35:55;;;;;;;7.78;5.55;;;;;;;;;;5032412;28;20132;-62
2021/05/03 00:38:40;;;;;;;6.60;5.05;;;;;;;;;;5032386;28;20415;-61
2021/05/03 00:41:26;;;;;;;5.82;5.15;;;;;;;;;;5032250;28;20049;-62
2021/05/03 00:44:12;;;;;;;9.43;5.45;;;;;;;;;;5037700;28;20045;-61
2021/05/03 00:46:59;;;;;;;10.73;6.38;;;;;;;;;;5037111;28;20431;-62
2021/05/03 00:49:44;;;;;;;6.22;4.93;;;;;;;;;;5052029;28;20056;-62
2021/05/03 00:52:29;;;;;;;8.30;5.80;;;;;;;;;;5051763;28;20614;-62
2021/05/03 00:55:15;;;;;;;8.90;5.93;;;;;;;;;;5050553;28;20065;-62
2021/05/03 00:58:03;;;;;;;7.55;5.57;;;;;;;;;;5052067;28;20052;-61
2021/05/03 01:00:48;;;;;;;8.65;5.60;;;;;;;;;;5051808;28;20041;-62
2021/05/03 01:03:33;;;;;;;6.45;4.90;;;;;;;;;;5051963;28;20045;-62
2021/05/03 01:06:19;;;;;;;7.40;5.13;;;;;;;;;;5050607;28;20135;-61
2021/05/03 01:09:05;;;;;;;6.80;5.30;;;;;;;;;;5051984;28;20080;-62
2021/05/03 01:11:50;;;;;;;8.43;5.43;;;;;;;;;;5051739;28;20052;-61
2021/05/03 01:14:35;;;;;;;7.78;5.32;;;;;;;;;;5035267;28;20045;-62
2021/05/03 01:17:29;;;;;;;7.80;5.28;;;;;;;;;;5051904;28;20049;-62
2021/05/03 01:20:15;;;;;;;9.65;5.20;;;;;;;;;;5036524;28;20064;-62
2021/05/03 01:23:01;;;;;;;9.38;6.05;;;;;;;;;;5053681;28;20041;-62
2021/05/03 01:25:46;;;;;;;10.55;6.00;;;;;;;;;;5055746;28;20037;-62
2021/05/03 01:28:32;;;;;;;8.95;5.57;;;;;;;;;;5055742;28;20045;-62
2021/05/03 01:31:18;;;;;;;9.82;5.57;;;;;;;;;;5055565;28;20494;-62
2021/05/03 01:34:06;;;;;;;9.02;6.30;;;;;;;;;;5054100;28;20063;-62
2021/05/03 01:36:53;;;;;;;8.95;5.22;;;;;;;;;;5055601;28;20513;-61
2021/05/03 01:39:38;;;;;;;9.00;6.38;;;;;;;;;;5055318;28;20514;-62
2021/05/03 01:42:25;;;;;;;7.03;5.53;;;;;;;;;;5055834;28;20048;-61
2021/05/03 01:45:10;;;;;;;5.05;4.35;;;;;;;;;;5054535;28;20427;-61
2021/05/03 01:47:56;;;;;;;5.82;4.75;;;;;;;;;;5040714;28;20037;-61
2021/05/03 01:50:42;;;;;;;5.68;5.07;;;;;;;;;;5040290;28;20048;-61
2021/05/03 01:53:27;;;;;;;7.78;4.72;;;;;;;;;;5040310;28;20041;-63
2021/05/03 01:56:12;;;;;;;7.30;4.47;;;;;;;;;;5070386;22;20581;-61
2021/05/03 01:58:57;;;;;;;4.65;4.15;;;;;;;;;;5040427;28;20045;-61
2021/05/03 02:01:42;;;;;;;4.20;3.72;;;;;;;;;;5055121;28;20418;-61
2021/05/03 02:04:28;;;;;;;4.45;3.50;;;;;;;;;;5057157;28;20045;-61
2021/05/03 02:07:16;;;;;;;3.90;3.38;;;;;;;;;;5074369;28;20569;-61
2021/05/03 02:10:01;;;;;;;3.65;3.28;;;;;;;;;;5074784;28;20807;-61
2021/05/03 02:12:47;;;;;;;4.50;3.08;;;;;;;;;;5075239;28;20045;-61
2021/05/03 02:15:32;;;;;;;3.85;2.80;;;;;;;;;;5073348;28;20060;-61
2021/05/03 02:18:18;;;;;;;5.72;3.00;;;;;;;;;;5074999;28;20059;-61
2021/05/03 02:21:03;;;;;;;4.03;3.05;;;;;;;;;;5074557;28;20564;-61
2021/05/03 02:23:48;;;;;;;5.82;3.42;;;;;;;;;;5074978;28;20052;-61
2021/05/03 02:26:34;;;;;;;4.30;3.88;;;;;;;;;;5072821;28;20052;-61
2021/05/03 02:29:19;;;;;;;5.07;3.55;;;;;;;;;;5074635;28;20099;-61
2021/05/03 02:32:04;;;;;;;6.00;4.10;;;;;;;;;;5059730;28;20053;-61
2021/05/03 02:34:50;;;;;;;5.00;4.45;;;;;;;;;;5073502;28;20048;-61
2021/05/03 02:37:35;;;;;;;5.28;4.20;;;;;;;;;;5057204;28;20063;-61
2021/05/03 02:40:20;;;;;;;5.30;4.53;;;;;;;;;;5074427;28;20048;-61
2021/05/03 02:43:06;;;;;;;6.13;4.68;;;;;;;;;;5074586;28;20048;-61
2021/05/03 02:45:51;;;;;;;6.05;4.63;;;;;;;;;;5074195;28;20055;-61
2021/05/03 02:48:37;;;;;;;5.28;4.78;;;;;;;;;;5072806;28;20040;-61
2021/05/03 02:51:23;;;;;;;6.20;5.10;;;;;;;;;;5073409;28;20044;-61
2021/05/03 02:54:08;;;;;;;6.15;5.35;;;;;;;;;;5074310;28;20511;-61
2021/05/03 02:56:53;;;;;;;8.85;4.72;;;;;;;;;;5057531;28;20948;-61
2021/05/03 02:59:38;;;;;;;6.93;5.00;;;;;;;;;;5074041;28;20045;-61
2021/05/03 03:02:24;;;;;;;7.30;5.07;;;;;;;;;;5074099;28;20041;-61
2021/05/03 03:05:10;;;;;;;4.78;4.30;;;;;;;;;;5074071;28;20052;-61
2021/05/03 03:08:01;;;;;;;6.82;4.35;;;;;;;;;;5057453;28;20067;-61
2021/05/03 03:10:46;;;;;;;6.63;4.30;;;;;;;;;;5073663;28;20508;-61
2021/05/03 03:13:31;;;;;;;7.82;5.35;;;;;;;;;;5074102;28;20048;-61
2021/05/03 03:16:17;;;;;;;7.25;5.20;;;;;;;;;;5069640;28;20040;-61
2021/05/03 03:19:02;;;;;;;6.22;4.82;;;;;;;;;;5073700;28;20495;-61
2021/05/03 03:21:47;;;;;;;6.60;4.95;;;;;;;;;;5073646;28;20075;-61
2021/05/03 03:24:32;;;;;;;7.68;5.10;;;;;;;;;;5073653;28;20131;-61
2021/05/03 03:27:18;;;;;;;6.72;5.72;;;;;;;;;;5071710;28;20059;-61
2021/05/03 03:30:07;;;;;;;6.20;5.28;;;;;;;;;;5073532;28;20045;-61
2021/05/03 03:32:52;;;;;;;7.63;6.05;;;;;;;;;;5073523;28;20506;-61
2021/05/03 03:35:37;;;;;;;6.72;5.90;;;;;;;;;;5073410;28;20448;-61
2021/05/03 03:38:23;;;;;;;8.93;7.20;;;;;;;;;;5071865;28;20052;-61
2021/05/03 03:41:08;;;;;;;11.43;7.30;;;;;;;;;;5073138;28;20044;-61
2021/05/03 03:43:55;;;;;;;11.68;7.72;;;;;;;;;;5073242;28;20049;-61
2021/05/03 03:46:40;;;;;;;9.60;8.50;;;;;;;;;;5071206;28;20044;-61
2021/05/03 03:49:26;;;;;;;11.80;9.00;;;;;;;;;;5073135;28;20090;-61
2021/05/03 03:52:11;;;;;;;12.98;9.20;;;;;;;;;;5073158;28;20048;-61
2021/05/03 03:54:56;;;;;;;12.80;10.32;;;;;;;;;;5072894;28;20051;-61
2021/05/03 03:57:42;;;;;;;14.02;9.82;;;;;;;;;;5071371;28;20045;-61
2021/05/03 04:00:27;;;;;;;14.68;10.70;;;;;;;;;;5072783;28;20546;-61
2021/05/03 04:03:13;;;;;;;14.60;11.32;;;;;;;;;;5073107;28;20125;-61
2021/05/03 04:06:18;;;;;;;14.60;11.70;;;;;;;;;;5072715;28;20123;-61
2021/05/03 04:24:05;;;;;;;18.88;13.48;;;;;;;;;;5072650;28;20040;-61
2021/05/03 04:26:50;;;;;;;15.20;13.23;;;;;;;;;;5058971;28;20105;-61
2021/05/03 04:29:35;;;;;;;17.08;13.95;;;;;;;;;;5070492;28;20514;-61
2021/05/03 04:32:20;;;;;;;14.95;13.13;;;;;;;;;;5072581;28;20049;-61
2021/05/03 04:35:06;;;;;;;19.00;14.38;;;;;;;;;;5072309;28;20044;-61
2021/05/03 04:37:51;;;;;;;19.00;14.40;;;;;;;;;;5072237;28;20431;-61
2021/05/03 04:40:37;;;;;;;18.88;15.27;;;;;;;;;;5071046;28;20406;-60
2021/05/03 04:43:22;;;;;;;18.60;14.48;;;;;;;;;;5072220;28;20040;-61
2021/05/03 04:46:08;;;;;;;19.60;15.32;;;;;;;;;;5057004;28;20048;-61
2021/05/03 04:48:53;;;;;;;18.52;14.85;;;;;;;;;;5070473;28;20421;-61
2021/05/03 04:51:39;;;;;;;21.38;15.30;;;;;;;;;;5071966;28;20044;-61
2021/05/03 04:54:24;;;;;;;17.20;14.95;;;;;;;;;;5071951;28;20094;-61
2021/05/03 04:57:09;;;;;;;17.80;14.98;;;;;;;;;;5071458;28;20502;-61
2021/05/03 04:59:54;;;;;;;21.10;16.25;;;;;;;;;;5070136;28;20056;-61
2021/05/03 05:02:40;;;;;;;23.20;16.05;;;;;;;;;;5072101;28;20059;-61
2021/05/03 05:05:27;;;;;;;19.73;14.52;;;;;;;;;;5071651;28;20044;-61
2021/05/03 05:08:13;;;;;;;21.27;15.20;;;;;;;;;;5071989;28;20045;-61
2021/05/03 05:10:58;;;;;;;15.85;14.10;;;;;;;;;;5069977;28;20048;-61
2021/05/03 05:13:43;;;;;;;16.45;14.18;;;;;;;;;;5071889;28;20037;-61
2021/05/03 05:16:29;;;;;;;19.90;14.60;;;;;;;;;;5042666;28;20049;-61
2021/05/03 05:19:14;;;;;;;15.57;13.27;;;;;;;;;;5033592;28;20162;-61
2021/05/03 05:21:59;;;;;;;17.75;14.10;;;;;;;;;;5055244;28;20636;-61
2021/05/03 05:24:44;;;;;;;15.43;13.80;;;;;;;;;;5071799;28;20048;-61
2021/05/03 05:27:30;;;;;;;16.75;11.95;;;;;;;;;;5071877;28;20045;-61
2021/05/03 05:30:15;;;;;;;16.60;13.05;;;;;;;;;;5069648;28;20053;-59
2021/05/03 05:33:01;;;;;;;13.50;11.85;;;;;;;;;;5071738;28;20087;-62
2021/05/03 05:35:46;;;;;;;17.52;12.18;;;;;;;;;;5071709;28;20445;-61
2021/05/03 05:38:31;;;;;;;17.30;12.93;;;;;;;;;;5071583;28;20052;-63
2021/05/03 05:41:19;;;;;;;16.08;12.60;;;;;;;;;;5069455;28;20041;-62
2021/05/03 05:44:06;;;;;;;17.08;13.43;;;;;;;;;;5071691;28;20040;-61
2021/05/03 05:46:51;;;;;;;17.08;13.02;;;;;;;;;;5071517;28;20048;-59
2021/05/03 05:49:36;;;;;;;17.52;13.63;;;;;;;;;;5071377;28;20040;-61
2021/05/03 05:52:23;;;;;;;19.17;15.48;;;;;;;;;;5069330;28;20081;-62
2021/05/03 05:55:08;;;;;;;16.02;13.90;;;;;;;;;;5071321;28;20053;-63
2021/05/03 05:57:53;;;;;;;16.95;14.05;;;;;;;;;;5071504;28;20037;-63
2021/05/03 06:00:38;;;;;;;19.60;14.80;;;;;;;;;;5071369;28;20045;-63
2021/05/03 06:03:24;;;;;;;21.77;16.13;;;;;;;;;;5069896;28;20490;-63
2021/05/03 06:06:11;;;;;;;16.17;14.50;;;;;;;;;;5071485;28;20045;-61
2021/05/03 06:08:56;;;;;;;16.65;14.68;;;;;;;;;;5072954;28;20395;-60
2021/05/03 06:11:41;;;;;;;19.73;15.32;;;;;;;;;;5073094;28;20119;-61
2021/05/03 06:14:27;;;;;;;21.77;15.70;;;;;;;;;;5074958;28;20490;-63
2021/05/03 06:17:15;;;;;;;21.33;16.42;;;;;;;;;;5075064;28;20135;-60
2021/05/03 06:20:00;;;;;;;22.33;16.42;;;;;;;;;;5074721;28;20052;-63
2021/05/03 06:22:45;;;;;;;19.25;16.17;;;;;;;;;;5071854;28;20036;-62
2021/05/03 06:25:30;;;;;;;23.13;17.88;;;;;;;;;;5074825;28;20072;-60
2021/05/03 06:28:16;;;;;;;20.83;17.67;;;;;;;;;;5074849;28;20475;-63
2021/05/03 06:31:01;;;;;;;21.08;17.73;;;;;;;;;;5072800;28;20076;-63
2021/05/03 06:33:47;;;;;;;21.52;17.40;;;;;;;;;;5074717;28;20045;-63
2021/05/03 06:36:32;;;;;;;21.73;18.35;;;;;;;;;;5074552;28;20542;-63
2021/05/03 06:39:17;;;;;;;24.88;18.83;;;;;;;;;;5074772;28;20143;-63
2021/05/03 06:42:02;;;;;;;22.38;19.92;;;;;;;;;;5072792;28;20052;-63
2021/05/03 06:44:48;;;;;;;23.50;20.00;;;;;;;;;;5073781;28;20490;-63
2021/05/03 06:47:33;;;;;;;22.92;19.70;;;;;;;;;;5072090;28;20116;-63
2021/05/03 06:50:19;;;;;;;21.77;19.00;;;;;;;;;;5068091;28;20049;-63
2021/05/03 06:53:04;;;;;;;24.70;19.70;;;;;;;;;;5074264;28;20395;-63
2021/05/03 06:55:49;;;;;;;23.48;20.60;;;;;;;;;;5074079;28;20132;-62
2021/05/03 06:58:35;;;;;;;29.38;21.88;;;;;;;;;;5074392;28;20044;-62
2021/05/03 07:01:21;;;;;;;25.48;21.45;;;;;;;;;;5067786;28;20036;-63
2021/05/03 07:04:06;;;;;;;24.98;22.27;;;;;;;;;;5074092;28;20072;-63
2021/05/03 07:06:52;;;;;;;27.38;22.13;;;;;;;;;;5074056;28;20438;-63
2021/05/03 07:09:37;;;;;;;26.83;22.88;;;;;;;;;;5073769;28;20117;-63
2021/05/03 07:12:24;;;;;;;27.38;21.48;;;;;;;;;;5072180;28;20044;-63
2021/05/03 07:15:10;;;;;;;25.15;22.30;;;;;;;;;;5073692;28;20045;-63
2021/05/03 07:17:55;;;;;;;29.73;24.15;;;;;;;;;;5073841;28;20072;-63
2021/05/03 07:20:40;;;;;;;29.25;23.75;;;;;;;;;;5070902;28;20049;-62
2021/05/03 07:23:26;;;;;;;30.25;23.65;;;;;;;;;;5074029;28;20040;-63
2021/05/03 07:26:11;;;;;;;29.60;24.55;;;;;;;;;;5073519;28;20045;-63
2021/05/03 07:28:56;;;;;;;31.40;24.27;;;;;;;;;;5073524;28;20040;-62
2021/05/03 07:31:42;;;;;;;32.47;25.60;;;;;;;;;;5071849;28;20052;-63
2021/05/03 07:34:27;;;;;;;30.85;24.90;;;;;;;;;;5073459;28;20441;-63
2021/05/03 07:37:13;;;;;;;31.35;25.80;;;;;;;;;;5073366;28;20109;-63
2021/05/03 07:39:58;;;;;;;32.40;24.50;;;;;;;;;;5073189;28;20032;-63
2021/05/03 07:42:43;;;;;;;30.38;24.60;;;;;;;;;;5073440;28;20037;-62
2021/05/03 07:45:29;;;;;;;31.67;25.88;;;;;;;;;;5073215;28;20048;-62
2021/05/03 07:48:14;;;;;;;28.50;24.55;;;;;;;;;;5073249;28;20044;-63
2021/05/03 07:50:59;;;;;;;31.08;27.33;;;;;;;;;;5070203;28;20048;-63
2021/05/03 07:53:45;;;;;;;31.20;26.30;;;;;;;;;;5073142;28;20498;-64
2021/05/03 07:56:32;;;;;;;33.30;26.05;;;;;;;;;;5099652;22;20044;-62
2021/05/03 07:59:17;;;;;;;29.55;26.20;;;;;;;;;;5052383;28;20104;-62
2021/05/03 08:02:03;;;;;;;29.88;25.90;;;;;;;;;;5053010;28;20045;-61
2021/05/03 08:04:48;;;;;;;32.75;26.88;;;;;;;;;;5053079;28;20045;-62
2021/05/03 08:07:34;;;;;;;31.17;24.75;;;;;;;;;;5032904;28;20500;-61
2021/05/03 08:10:19;;;;;;;28.55;23.67;;;;;;;;;;5031160;28;20439;-62
2021/05/03 08:13:04;;;;;;;28.60;25.48;;;;;;;;;;5033095;28;20128;-61
2021/05/03 08:15:52;;;;;;;32.28;26.40;;;;;;;;;;5032740;28;20415;-61
2021/05/03 08:18:37;;;;;;;27.95;24.52;;;;;;;;;;5032799;28;20056;-61
2021/05/03 08:21:22;;;;;;;34.00;28.13;;;;;;;;;;5031685;28;20133;-61
2021/05/03 08:24:08;;;;;;;30.50;26.98;;;;;;;;;;5032635;28;20046;-61
2021/05/03 08:26:54;;;;;;;31.88;28.00;;;;;;;;;;5017570;28;20041;-61
2021/05/03 08:29:39;;;;;;;31.05;27.23;;;;;;;;;;5032576;28;20050;-60
2021/05/03 08:32:25;;;;;;;32.70;28.33;;;;;;;;;;5030802;28;20069;-62
2021/05/03 08:35:10;;;;;;;31.85;28.30;;;;;;;;;;5032358;28;20041;-62
2021/05/03 08:37:55;;;;;;;32.75;26.80;;;;;;;;;;5032402;28;20053;-62
2021/05/03 08:40:41;;;;;;;35.90;28.05;;;;;;;;;;5031440;28;20053;-62
2021/05/03 08:43:28;;;;;;;32.70;27.90;;;;;;;;;;5032277;28;20132;-61
2021/05/03 08:46:27;;;;;;;30.67;27.30;;;;;;;;;;5031265;28;20052;-61
2021/05/03 08:54:44;;;;;;;35.45;29.75;;;;;;;;;;5031757;28;20053;-64
2021/05/03 08:57:30;;;;;;;36.33;30.15;;;;;;;;;;5031006;28;20160;-61
2021/05/03 09:00:16;;;;;;;33.78;30.13;;;;;;;;;;5030105;28;20045;-61
2021/05/03 09:03:01;;;;;;;41.67;34.28;;;;;;;;;;5032022;28;20053;-62
2021/05/03 09:05:46;;;;;;;35.00;31.25;;;;;;;;;;5016689;28;20046;-61
2021/05/03 09:08:32;;;;;;;38.28;32.53;;;;;;;;;;5012379;28;20045;-61
2021/05/03 09:11:17;;;;;;;38.47;33.20;;;;;;;;;;5011964;28;20073;-62
2021/05/03 09:14:09;;;;;;;38.42;30.77;;;;;;;;;;5012372;28;20046;-62
2021/05/03 09:16:54;;;;;;;36.10;31.43;;;;;;;;;;5018667;28;20045;-61
2021/05/03 09:19:39;;;;;;;38.28;31.73;;;;;;;;;;5031649;28;20754;-61
2021/05/03 09:22:30;;;;;;;35.38;31.35;;;;;;;;;;5032059;28;20049;-61
2021/05/03 09:25:15;;;;;;;38.92;32.03;;;;;;;;;;5031804;28;20083;-62
2021/05/03 09:28:03;;;;;;;43.75;35.55;;;;;;;;;;5031040;28;20053;-62
2021/05/03 09:30:49;;;;;;;37.95;33.03;;;;;;;;;;5030884;28;20049;-62
2021/05/03 09:33:41;;;;;;;39.50;32.78;;;;;;;;;;5031824;28;20037;-62
2021/05/03 09:36:26;;;;;;;36.93;33.03;;;;;;;;;;5032007;28;20133;-61
2021/05/03 09:39:11;;;;;;;40.58;34.15;;;;;;;;;;5031809;28;20056;-61
2021/05/03 09:41:57;;;;;;;45.92;34.22;;;;;;;;;;5031025;28;20112;-61
2021/05/03 09:45:01;;;;;;;42.65;37.10;;;;;;;;;;5034554;28;20057;-60
2021/05/03 09:47:47;;;;;;;42.03;34.92;;;;;;;;;;5035608;28;20049;-61
2021/05/03 09:50:33;;;;;;;37.92;33.72;;;;;;;;;;5034364;28;20038;-62
2021/05/03 09:53:18;;;;;;;36.40;32.40;;;;;;;;;;5035817;28;20053;-62
2021/05/03 09:56:04;;;;;;;37.80;32.78;;;;;;;;;;5035334;28;20046;-62
2021/05/03 09:58:49;;;;;;;37.70;33.25;;;;;;;;;;5035437;28;20050;-62
2021/05/03 10:01:34;;;;;;;38.53;34.03;;;;;;;;;;5034378;28;20491;-61
2021/05/03 10:04:20;;;;;;;48.00;34.88;;;;;;;;;;5035380;28;20049;-62
2021/05/03 10:07:05;;;;;;;37.85;33.22;;;;;;;;;;5020348;28;20053;-62
2021/05/03 10:09:58;;;;;;;37.65;33.28;;;;;;;;;;5035293;28;20050;-61
2021/05/03 10:12:43;;;;;;;37.03;32.45;;;;;;;;;;5034314;28;20487;-61
2021/05/03 10:15:28;;;;;;;37.13;32.78;;;;;;;;;;5020258;28;20041;-61
2021/05/03 10:18:18;;;;;;;38.33;32.10;;;;;;;;;;5020308;28;20049;-61
2021/05/03 10:21:03;;;;;;;37.58;33.58;;;;;;;;;;5019787;28;20050;-63
2021/05/03 10:23:49;;;;;;;34.05;29.17;;;;;;;;;;5017965;28;20275;-61
2021/05/03 10:26:34;;;;;;;35.08;31.42;;;;;;;;;;5034940;28;20467;-62
2021/05/03 10:29:41;;;;;;;31.92;28.52;;;;;;;;;;5020108;28;20050;-61
2021/05/03 10:32:26;;;;;;;36.25;31.15;;;;;;;;;;5033672;28;20045;-61
2021/05/03 10:35:31;;;;;;;35.72;30.08;;;;;;;;;;5034899;28;20049;-61
2021/05/03 10:38:28;;;;;;;35.83;31.92;;;;;;;;;;5031522;28;20049;-61
2021/05/03 10:41:31;;;;;;;37.92;32.10;;;;;;;;;;5034441;28;20484;-62
2021/05/03 10:44:22;;;;;;;;;;;;;;;;;;5034896;28;20500;-61
2021/05/03 10:47:26;;;;;;;30.02;26.77;;;;;;;;;;5034350;28;20024;-62
2021/05/03 10:50:33;;;;;;;29.70;26.45;;;;;;;;;;5034315;28;20041;-61
2021/05/03 10:53:22;;;;;;;31.50;28.27;;;;;;;;;;5033704;28;20045;-62
2021/05/03 10:56:09;;;;;;;32.55;29.23;;;;;;;;;;5033252;28;20045;-60
2021/05/03 10:58:54;;;;;;;35.03;31.27;;;;;;;;;;5034373;28;20038;-60
2021/05/03 11:01:54;;;;;;;34.08;30.50;;;;;;;;;;5033888;28;20045;-61
2021/05/03 11:04:40;;;;;;;30.38;25.45;;;;;;;;;;5032488;28;20037;-61
2021/05/03 11:07:26;;;;;;;29.50;26.48;;;;;;;;;;5034062;28;20049;-61
2021/05/03 11:10:11;;;;;;;33.40;28.38;;;;;;;;;;5019098;28;20045;-62
2021/05/03 11:12:56;;;;;;;31.17;27.83;;;;;;;;;;5033356;28;20069;-61
2021/05/03 11:15:41;;;;;;;34.38;30.77;;;;;;;;;;5014149;28;20046;-60
2021/05/03 11:18:27;;;;;;;29.15;26.05;;;;;;;;;;5014209;28;20120;-61
2021/05/03 11:21:16;;;;;;;28.20;24.90;;;;;;;;;;5013992;28;20046;-62
2021/05/03 11:24:15;;;;;;;28.35;25.42;;;;;;;;;;5019249;28;20045;-61
2021/05/03 11:27:05;;;;;;;27.63;24.95;;;;;;;;;;5033869;28;20053;-61
2021/05/03 11:30:05;;;;;;;25.02;22.45;;;;;;;;;;5032616;28;20458;-62
2021/05/03 11:32:52;;;;;;;20.63;18.23;;;;;;;;;;5033747;28;20042;-62
2021/05/03 11:41:36;;;;;;;25.83;22.65;;;;;;;;;;5018478;28;20132;-61
2021/05/03 11:44:26;;;;;;;28.85;25.90;;;;;;;;;;5032882;28;20419;-62
2021/05/03 11:47:12;;;;;;;22.02;18.92;;;;;;;;;;5033331;28;20045;-61
2021/05/03 11:49:57;;;;;;;25.27;22.80;;;;;;;;;;5033154;28;20621;-62
2021/05/03 11:52:42;;;;;;;25.27;22.63;;;;;;;;;;5033411;28;20041;-61
2021/05/03 11:55:28;;;;;;;17.48;15.13;;;;;;;;;;5032216;28;20515;-62
2021/05/03 11:58:14;;;;;;;13.68;12.13;;;;;;;;;;5032300;28;20053;-60
2021/05/03 12:00:59;;;;;;;11.30;10.10;;;;;;;;;;5032883;28;20102;-62
2021/05/03 12:03:51;;;;;;;11.50;8.63;;;;;;;;;;5018135;28;20133;-62
2021/05/03 12:06:42;;;;;;;8.53;7.73;;;;;;;;;;5031937;28;20053;-61
2021/05/03 12:09:27;;;;;;;11.63;7.97;;;;;;;;;;5016715;28;20304;-61
2021/05/03 12:12:13;;;;;;;11.38;7.68;;;;;;;;;;5032491;28;20073;-61
2021/05/03 12:14:58;;;;;;;7.35;6.65;;;;;;;;;;5032654;28;20500;-62
2021/05/03 12:17:44;;;;;;;6.43;5.82;;;;;;;;;;5032183;28;20492;-62
2021/05/03 12:20:30;;;;;;;7.72;6.68;;;;;;;;;;5032458;28;20054;-60
2021/05/03 12:23:16;;;;;;;6.55;5.95;;;;;;;;;;5032551;28;20515;-60
2021/05/03 12:26:03;;;;;;;8.57;6.18;;;;;;;;;;5031654;28;20446;-60
2021/05/03 12:28:51;;;;;;;8.75;7.85;;;;;;;;;;5032449;28;20081;-61
2021/05/03 12:31:36;;;;;;;7.85;7.05;;;;;;;;;;5032426;28;20049;-60
2021/05/03 12:34:23;;;;;;;7.18;6.47;;;;;;;;;;5003742;28;20495;-61
2021/05/03 12:37:09;;;;;;;6.65;5.10;;;;;;;;;;5031403;28;20056;-61
2021/05/03 12:39:55;;;;;;;6.38;5.32;;;;;;;;;;5031962;28;20491;-61
2021/05/03 12:42:51;;;;;;;5.07;4.60;;;;;;;;;;5032416;28;20069;-61
2021/05/03 12:45:42;;;;;;;6.45;4.65;;;;;;;;;;5032350;28;20419;-62
2021/05/03 12:48:32;;;;;;;5.72;5.22;;;;;;;;;;5031573;28;20053;-61
2021/05/03 12:59:58;;;;;;;5.07;4.45;;;;;;;;;;5031892;28;20507;-62
2021/05/03 13:03:01;;;;;;;5.22;4.72;;;;;;;;;;5032097;28;20049;-61
2021/05/03 13:06:05;;;;;;;7.88;4.60;;;;;;;;;;5032286;28;20045;-62
2021/05/03 13:29:45;;;;;;;6.18;5.57;;;;;;;;;;5030437;28;20049;-64
2021/05/03 13:32:31;;;;;;;6.47;5.90;;;;;;;;;;5016965;28;20045;-63
2021/05/03 13:35:16;;;;;;;6.47;5.82;;;;;;;;;;5031486;28;20488;-62
2021/05/03 13:38:01;;;;;;;5.82;5.28;;;;;;;;;;5031042;28;20049;-61
2021/05/03 13:40:47;;;;;;;6.43;5.32;;;;;;;;;;5031794;28;20050;-62
2021/05/03 13:43:32;;;;;;;7.03;6.07;;;;;;;;;;5031544;28;20058;-61
2021/05/03 13:46:18;;;;;;;7.03;4.93;;;;;;;;;;5031389;28;20061;-61
2021/05/03 13:49:04;;;;;;;7.45;6.10;;;;;;;;;;5030952;28;20128;-62
2021/05/03 13:51:50;;;;;;;8.40;5.43;;;;;;;;;;5030913;28;20113;-61
2021/05/03 13:54:35;;;;;;;6.55;5.95;;;;;;;;;;5031185;28;20045;-61
2021/05/03 13:57:21;;;;;;;6.78;6.05;;;;;;;;;;5031387;28;20057;-62
2021/05/03 14:00:07;;;;;;;7.75;7.05;;;;;;;;;;5029521;28;20511;-61
2021/05/03 14:03:00;;;;;;;7.38;6.45;;;;;;;;;;5011599;28;20050;-61
2021/05/03 14:05:46;;;;;;;7.22;6.20;;;;;;;;;;5011559;28;20037;-61
2021/05/03 14:08:32;;;;;;;8.35;7.35;;;;;;;;;;5052408;23;20409;-63
2021/05/03 14:11:17;;;;;;;8.50;7.00;;;;;;;;;;5049015;28;20055;-63
2021/05/03 14:14:02;;;;;;;7.28;6.57;;;;;;;;;;5051108;28;20053;-63
2021/05/03 14:16:48;;;;;;;7.68;6.38;;;;;;;;;;5051113;28;20054;-64
2021/05/03 14:19:38;;;;;;;8.18;6.80;;;;;;;;;;5065268;28;20048;-62
2021/05/03 14:22:23;;;;;;;8.43;6.95;;;;;;;;;;5051058;28;20041;-62
2021/05/03 14:25:12;;;;;;;8.65;7.13;;;;;;;;;;5050808;28;20045;-62
2021/05/03 14:27:59;;;;;;;9.77;7.38;;;;;;;;;;5050699;28;20041;-63
2021/05/03 14:30:50;;;;;;;9.73;8.13;;;;;;;;;;5051094;28;20049;-63
2021/05/03 14:33:37;;;;;;;8.50;7.45;;;;;;;;;;5054275;28;20076;-63
2021/05/03 14:36:22;;;;;;;9.95;7.40;;;;;;;;;;5054013;28;20056;-62
2021/05/03 14:39:07;;;;;;;10.55;7.53;;;;;;;;;;5054684;28;20080;-63
2021/05/03 14:41:53;;;;;;;8.07;7.25;;;;;;;;;;5051743;28;20123;-63
2021/05/03 14:44:38;;;;;;;10.85;7.82;;;;;;;;;;5054226;28;20052;-63
2021/05/03 14:47:29;;;;;;;10.25;7.47;;;;;;;;;;5054214;28;20499;-62
2021/05/03 14:50:32;;;;;;;9.52;7.15;;;;;;;;;;5038228;28;20120;-63
2021/05/03 14:56:04;;;;;;;10.38;9.27;;;;;;;;;;5054057;28;20402;-60
2021/05/03 14:58:49;;;;;;;11.38;8.57;;;;;;;;;;5053392;28;20077;-61
2021/05/03 15:01:35;;;;;;;11.68;9.73;;;;;;;;;;5034282;28;20049;-61
2021/05/03 15:04:20;;;;;;;10.98;6.00;;;;;;;;;;5034089;28;20041;-61
2021/05/03 15:07:15;;;;;;;11.48;6.50;;;;;;;;;;5033855;28;20706;-62
2021/05/03 15:10:01;;;;;;;10.55;8.93;;;;;;;;;;5040178;28;20044;-61
2021/05/03 15:12:52;;;;;;;12.85;11.07;;;;;;;;;;5053769;28;20495;-61
2021/05/03 15:15:47;;;;;;;13.82;12.43;;;;;;;;;;5053357;28;20041;-62
2021/05/03 15:18:45;;;;;;;12.68;11.38;;;;;;;;;;5053718;28;20057;-60
2021/05/03 15:24:16;;;;;;;13.43;12.02;;;;;;;;;;5053654;28;20060;-61
2021/05/03 15:27:14;;;;;;;14.18;12.32;;;;;;;;;;5044211;28;20045;-62
2021/05/03 15:30:28;;;;;;;10.38;7.78;;;;;;;;;;5041445;28;20072;-61
2021/05/03 15:36:17;;;;;;;13.65;12.13;;;;;;;;;;5041514;28;20042;-62
2021/05/03 15:39:04;;;;;;;13.20;11.98;;;;;;;;;;5033223;28;20045;-61
2021/05/03 15:41:49;;;;;;;12.90;11.57;;;;;;;;;;5045500;28;20495;-61
2021/05/03 15:44:36;;;;;;;9.30;8.40;;;;;;;;;;5038123;28;20075;-61
2021/05/03 15:47:22;;;;;;;8.75;7.82;;;;;;;;;;5052454;28;20072;-58
2021/05/03 15:50:07;;;;;;;9.68;8.77;;;;;;;;;;5051988;28;20050;-60
2021/05/03 15:52:52;;;;;;;11.13;9.60;;;;;;;;;;5033093;28;20068;-59
2021/05/03 15:55:38;;;;;;;10.70;9.60;;;;;;;;;;5033026;28;20049;-60
2021/05/03 15:58:24;;;;;;;10.52;9.43;;;;;;;;;;5032887;28;20049;-59
2021/05/03 16:01:09;;;;;;;11.48;10.43;;;;;;;;;;5040562;28;20494;-61
2021/05/03 16:03:56;;;;;;;11.43;10.43;;;;;;;;;;5050750;28;20057;-61
2021/05/03 16:06:41;;;;;;;11.82;10.25;;;;;;;;;;5050327;28;20486;-60
2021/05/03 16:09:27;;;;;;;12.18;10.98;;;;;;;;;;5050277;28;20036;-61
2021/05/03 16:12:12;;;;;;;11.90;10.70;;;;;;;;;;5047103;28;20052;-61
2021/05/03 16:14:57;;;;;;;13.10;11.75;;;;;;;;;;5045746;28;20045;-61
2021/05/03 16:17:42;;;;;;;12.80;11.43;;;;;;;;;;5050864;28;20392;-61
2021/05/03 16:20:27;;;;;;;13.20;11.90;;;;;;;;;;5050024;28;20048;-61
2021/05/03 16:23:12;;;;;;;14.45;12.00;;;;;;;;;;5049533;28;20056;-61
2021/05/03 16:25:58;;;;;;;13.48;12.18;;;;;;;;;;5050242;28;20044;-61
2021/05/03 16:28:43;;;;;;;14.18;12.23;;;;;;;;;;5057464;28;20049;-61
2021/05/03 16:31:28;;;;;;;13.73;12.32;;;;;;;;;;5067064;28;20040;-61
2021/05/03 16:34:13;;;;;;;12.75;11.43;;;;;;;;;;5049714;28;20132;-60
2021/05/03 16:36:58;;;;;;;13.38;11.98;;;;;;;;;;5049711;28;20049;-61
2021/05/03 16:39:44;;;;;;;14.73;13.05;;;;;;;;;;5050289;28;20076;-61
2021/05/03 16:42:29;;;;;;;13.35;11.65;;;;;;;;;;5049540;28;20049;-61
2021/05/03 16:45:15;;;;;;;14.10;12.23;;;;;;;;;;5049755;28;20049;-61
2021/05/03 16:48:00;;;;;;;13.52;11.95;;;;;;;;;;5049812;28;20048;-61
2021/05/03 16:50:48;;;;;;;15.60;13.95;;;;;;;;;;5048891;28;20045;-61
2021/05/03 16:53:33;;;;;;;14.95;12.32;;;;;;;;;;5049337;28;20053;-61
2021/05/03 16:56:19;;;;;;;14.63;11.85;;;;;;;;;;5049863;28;20053;-61
2021/05/03 16:59:05;;;;;;;13.93;12.55;;;;;;;;;;5059529;28;20048;-61
2021/05/03 17:01:50;;;;;;;14.68;13.05;;;;;;;;;;5056774;28;20052;-61
2021/05/03 17:04:36;;;;;;;16.10;13.52;;;;;;;;;;5047751;28;20461;-61
2021/05/03 17:07:21;;;;;;;14.65;13.15;;;;;;;;;;5049831;28;20045;-61
2021/05/03 17:10:07;;;;;;;14.80;13.30;;;;;;;;;;5049193;28;20519;-62
2021/05/03 17:12:52;;;;;;;15.65;14.15;;;;;;;;;;5050203;28;20056;-62
2021/05/03 17:15:37;;;;;;;16.85;15.15;;;;;;;;;;5034141;28;20053;-63
2021/05/03 17:18:22;;;;;;;16.25;14.60;;;;;;;;;;5048992;28;20052;-61
2021/05/03 17:21:07;;;;;;;17.38;15.68;;;;;;;;;;5033857;28;20045;-61
2021/05/03 17:23:53;;;;;;;17.02;15.40;;;;;;;;;;5048151;28;20069;-62
2021/05/03 17:26:38;;;;;;;16.38;14.82;;;;;;;;;;5050116;28;20128;-62